Hlavní strana
METAR-TAF:

METAR-TAF

Letiště :

Letiště Gran Canaria

Gran Canaria, Španělsko

zeměpisná šířka: 27-56N, zeměpisná délka: 015-23W, výška: 23 m

Aktuální stav počasí

Zpráva byla vytvořena před 20 minutami, v 06:00 UTC
Severní vítr 8 kt, proměnlivý mezi severozápadním a severoseverovýchodním
Teplota 16°C
Vlhkost vzduchu 88%
Tlak 1021 hPa
Viditelnost 10 km a více
Skoro jasno ve výšce 1800 ft

METAR: GCLP 240600Z 35008KT 320V020 9999 FEW018 16/14 Q1021 NOSIG

Čas: 06:20 (06:20 UTC)

Předpověď počasí

Zpráva byla vytvořena před 4 hodinami a 20 minutami, v 02:00 UTC
Předpověď platná od 24 v 03 UTC do 25 v 03 UTC
Severní vítr 9 kt
Viditelnost 10 km a více
Polojasno ve výšce 2000 ft

TAF: GCLP 240200Z 2403/2503 36009KT 9999 SCT020 TX22/2414Z TN16/2407Z

Stav a předpovědi počasí z více než 4 000 letišť (zprávy METAR a TAF).

Červené a žluté tečky na mapě představují dostupné meteorologické stanice.

Když kurzor umístíte na tečku, zobrazí se název stanice.

Pak kliknutím zobrazíte stav a předpověď počasí.

Chcete-li změnit mapu, kliknutím na zelené tlačítko se znaménkem +mapu přiblížíte, kliknutím na zelené tlačítko se znaménkem – mapu oddálíte a kliknutím na zelené šipky přejdete na sousední mapy.


METAR-TAF: